sensor_id;sensor_type;location;lat;lon;timestamp;temperature;humidity
17252;DHT22;8742;51.716;8.790;2023-05-07T00:00:22;14.50;99.90
17252;DHT22;8742;51.716;8.790;2023-05-07T00:02:51;14.50;99.90
17252;DHT22;8742;51.716;8.790;2023-05-07T00:05:19;14.40;99.90
17252;DHT22;8742;51.716;8.790;2023-05-07T00:07:46;14.40;99.90
17252;DHT22;8742;51.716;8.790;2023-05-07T00:10:13;14.40;99.90
17252;DHT22;8742;51.716;8.790;2023-05-07T00:12:40;14.40;99.90
17252;DHT22;8742;51.716;8.790;2023-05-07T00:15:08;14.40;99.90
17252;DHT22;8742;51.716;8.790;2023-05-07T00:17:35;14.40;99.90
17252;DHT22;8742;51.716;8.790;2023-05-07T00:20:03;14.40;99.90
17252;DHT22;8742;51.716;8.790;2023-05-07T00:22:31;14.30;99.90
17252;DHT22;8742;51.716;8.790;2023-05-07T00:24:58;14.40;99.90
17252;DHT22;8742;51.716;8.790;2023-05-07T00:27:25;14.30;99.90
17252;DHT22;8742;51.716;8.790;2023-05-07T00:29:52;14.30;99.90
17252;DHT22;8742;51.716;8.790;2023-05-07T00:32:18;14.30;99.90
17252;DHT22;8742;51.716;8.790;2023-05-07T00:34:45;14.30;99.90
17252;DHT22;8742;51.716;8.790;2023-05-07T00:37:13;14.30;99.90
17252;DHT22;8742;51.716;8.790;2023-05-07T00:39:40;14.30;99.90
17252;DHT22;8742;51.716;8.790;2023-05-07T00:42:07;14.30;99.90
17252;DHT22;8742;51.716;8.790;2023-05-07T00:44:34;14.30;99.90
17252;DHT22;8742;51.716;8.790;2023-05-07T00:47:02;14.30;99.90
17252;DHT22;8742;51.716;8.790;2023-05-07T00:49:37;14.30;99.90
17252;DHT22;8742;51.716;8.790;2023-05-07T00:52:05;14.20;99.90
17252;DHT22;8742;51.716;8.790;2023-05-07T00:54:34;14.30;99.90
17252;DHT22;8742;51.716;8.790;2023-05-07T00:57:02;14.20;99.90
17252;DHT22;8742;51.716;8.790;2023-05-07T00:59:29;14.20;99.90
17252;DHT22;8742;51.716;8.790;2023-05-07T01:01:56;14.20;99.90
17252;DHT22;8742;51.716;8.790;2023-05-07T01:04:23;14.20;99.90
17252;DHT22;8742;51.716;8.790;2023-05-07T01:06:50;14.20;99.90
17252;DHT22;8742;51.716;8.790;2023-05-07T01:09:19;14.20;99.90
17252;DHT22;8742;51.716;8.790;2023-05-07T01:11:48;14.20;99.90
17252;DHT22;8742;51.716;8.790;2023-05-07T01:14:16;14.20;99.90
17252;DHT22;8742;51.716;8.790;2023-05-07T01:16:43;14.10;99.90
17252;DHT22;8742;51.716;8.790;2023-05-07T01:19:11;14.10;99.90
17252;DHT22;8742;51.716;8.790;2023-05-07T01:21:43;14.10;99.90
17252;DHT22;8742;51.716;8.790;2023-05-07T01:24:12;14.10;99.90
17252;DHT22;8742;51.716;8.790;2023-05-07T01:26:40;14.00;99.90
17252;DHT22;8742;51.716;8.790;2023-05-07T01:29:06;14.00;99.90
17252;DHT22;8742;51.716;8.790;2023-05-07T01:31:34;14.00;99.90
17252;DHT22;8742;51.716;8.790;2023-05-07T01:34:04;14.00;99.90
17252;DHT22;8742;51.716;8.790;2023-05-07T01:36:31;13.90;99.90
17252;DHT22;8742;51.716;8.790;2023-05-07T01:38:59;14.00;99.90
17252;DHT22;8742;51.716;8.790;2023-05-07T01:41:28;13.90;99.90
17252;DHT22;8742;51.716;8.790;2023-05-07T01:43:56;14.00;99.90
17252;DHT22;8742;51.716;8.790;2023-05-07T01:46:23;13.90;99.90
17252;DHT22;8742;51.716;8.790;2023-05-07T01:48:51;13.90;99.90
17252;DHT22;8742;51.716;8.790;2023-05-07T01:51:18;13.90;99.90
17252;DHT22;8742;51.716;8.790;2023-05-07T01:53:45;13.90;99.90
17252;DHT22;8742;51.716;8.790;2023-05-07T01:56:16;13.90;99.90
17252;DHT22;8742;51.716;8.790;2023-05-07T01:58:44;13.90;99.90
17252;DHT22;8742;51.716;8.790;2023-05-07T02:01:12;13.80;99.90
17252;DHT22;8742;51.716;8.790;2023-05-07T02:03:39;13.80;99.90
17252;DHT22;8742;51.716;8.790;2023-05-07T02:06:06;13.80;99.90
17252;DHT22;8742;51.716;8.790;2023-05-07T02:08:32;13.80;99.90
17252;DHT22;8742;51.716;8.790;2023-05-07T02:10:59;13.70;99.90
17252;DHT22;8742;51.716;8.790;2023-05-07T02:13:28;13.70;99.90
17252;DHT22;8742;51.716;8.790;2023-05-07T02:15:57;13.70;99.90
17252;DHT22;8742;51.716;8.790;2023-05-07T02:18:23;13.70;99.90
17252;DHT22;8742;51.716;8.790;2023-05-07T02:20:50;13.60;99.90
17252;DHT22;8742;51.716;8.790;2023-05-07T02:23:17;13.60;99.90
17252;DHT22;8742;51.716;8.790;2023-05-07T02:25:44;13.60;99.90
17252;DHT22;8742;51.716;8.790;2023-05-07T02:28:11;13.60;99.90
17252;DHT22;8742;51.716;8.790;2023-05-07T02:30:38;13.50;99.90
17252;DHT22;8742;51.716;8.790;2023-05-07T02:33:06;13.50;99.90
17252;DHT22;8742;51.716;8.790;2023-05-07T02:35:33;13.50;99.90
17252;DHT22;8742;51.716;8.790;2023-05-07T02:38:00;13.40;99.90
17252;DHT22;8742;51.716;8.790;2023-05-07T02:40:27;13.40;99.90
17252;DHT22;8742;51.716;8.790;2023-05-07T02:42:54;13.40;99.90
17252;DHT22;8742;51.716;8.790;2023-05-07T02:45:21;13.30;99.90
17252;DHT22;8742;51.716;8.790;2023-05-07T02:47:48;13.30;99.90
17252;DHT22;8742;51.716;8.790;2023-05-07T02:50:16;13.30;99.90
17252;DHT22;8742;51.716;8.790;2023-05-07T02:52:43;13.30;99.90
17252;DHT22;8742;51.716;8.790;2023-05-07T02:55:10;13.30;99.90
17252;DHT22;8742;51.716;8.790;2023-05-07T02:57:37;13.20;99.90
17252;DHT22;8742;51.716;8.790;2023-05-07T03:00:11;13.20;99.90
17252;DHT22;8742;51.716;8.790;2023-05-07T03:02:38;13.20;99.90
17252;DHT22;8742;51.716;8.790;2023-05-07T03:05:06;13.20;99.90
17252;DHT22;8742;51.716;8.790;2023-05-07T03:07:34;13.20;99.90
17252;DHT22;8742;51.716;8.790;2023-05-07T03:10:01;13.10;99.90
17252;DHT22;8742;51.716;8.790;2023-05-07T03:12:28;13.10;99.90
17252;DHT22;8742;51.716;8.790;2023-05-07T03:14:55;13.10;99.90
17252;DHT22;8742;51.716;8.790;2023-05-07T03:17:22;13.10;99.90
17252;DHT22;8742;51.716;8.790;2023-05-07T03:19:48;13.10;99.90
17252;DHT22;8742;51.716;8.790;2023-05-07T03:22:15;13.10;99.90
17252;DHT22;8742;51.716;8.790;2023-05-07T03:24:43;13.00;99.90
17252;DHT22;8742;51.716;8.790;2023-05-07T03:27:10;13.00;99.90
17252;DHT22;8742;51.716;8.790;2023-05-07T03:29:37;13.00;99.90
17252;DHT22;8742;51.716;8.790;2023-05-07T03:32:04;13.00;99.90
17252;DHT22;8742;51.716;8.790;2023-05-07T03:34:31;12.90;99.90
17252;DHT22;8742;51.716;8.790;2023-05-07T03:36:58;12.90;99.90
17252;DHT22;8742;51.716;8.790;2023-05-07T03:39:24;12.80;99.90
17252;DHT22;8742;51.716;8.790;2023-05-07T03:41:53;12.80;99.90
17252;DHT22;8742;51.716;8.790;2023-05-07T03:44:20;12.80;99.90
17252;DHT22;8742;51.716;8.790;2023-05-07T03:46:46;12.80;99.90
17252;DHT22;8742;51.716;8.790;2023-05-07T03:49:13;12.80;99.90
17252;DHT22;8742;51.716;8.790;2023-05-07T03:51:40;12.70;99.90
17252;DHT22;8742;51.716;8.790;2023-05-07T03:54:07;12.70;99.90
17252;DHT22;8742;51.716;8.790;2023-05-07T03:56:34;12.70;99.90
17252;DHT22;8742;51.716;8.790;2023-05-07T03:59:02;12.70;99.90
17252;DHT22;8742;51.716;8.790;2023-05-07T04:01:29;12.70;99.90
17252;DHT22;8742;51.716;8.790;2023-05-07T04:03:56;12.80;99.90
17252;DHT22;8742;51.716;8.790;2023-05-07T04:06:22;12.80;99.90
17252;DHT22;8742;51.716;8.790;2023-05-07T04:08:49;12.80;99.90
17252;DHT22;8742;51.716;8.790;2023-05-07T04:11:16;12.80;99.90
17252;DHT22;8742;51.716;8.790;2023-05-07T04:13:43;12.80;99.90
17252;DHT22;8742;51.716;8.790;2023-05-07T04:16:11;12.80;99.90
17252;DHT22;8742;51.716;8.790;2023-05-07T04:18:38;12.80;99.90
17252;DHT22;8742;51.716;8.790;2023-05-07T04:21:05;12.80;99.90
17252;DHT22;8742;51.716;8.790;2023-05-07T04:23:32;12.80;99.90
17252;DHT22;8742;51.716;8.790;2023-05-07T04:25:59;12.80;99.90
17252;DHT22;8742;51.716;8.790;2023-05-07T04:28:26;12.80;99.90
17252;DHT22;8742;51.716;8.790;2023-05-07T04:30:53;12.80;99.90
17252;DHT22;8742;51.716;8.790;2023-05-07T04:33:21;12.80;99.90
17252;DHT22;8742;51.716;8.790;2023-05-07T04:35:48;12.80;99.90
17252;DHT22;8742;51.716;8.790;2023-05-07T04:38:14;12.80;99.90
17252;DHT22;8742;51.716;8.790;2023-05-07T04:40:42;12.80;99.90
17252;DHT22;8742;51.716;8.790;2023-05-07T04:43:09;12.80;99.90
17252;DHT22;8742;51.716;8.790;2023-05-07T04:45:36;12.80;99.90
17252;DHT22;8742;51.716;8.790;2023-05-07T04:48:03;12.80;99.90
17252;DHT22;8742;51.716;8.790;2023-05-07T04:50:32;12.90;99.90
17252;DHT22;8742;51.716;8.790;2023-05-07T04:52:58;12.90;99.90
17252;DHT22;8742;51.716;8.790;2023-05-07T04:55:25;12.90;99.90
17252;DHT22;8742;51.716;8.790;2023-05-07T04:57:53;12.90;99.90
17252;DHT22;8742;51.716;8.790;2023-05-07T05:00:20;12.90;99.90
17252;DHT22;8742;51.716;8.790;2023-05-07T05:02:46;12.90;99.90
17252;DHT22;8742;51.716;8.790;2023-05-07T05:05:13;12.90;99.90
17252;DHT22;8742;51.716;8.790;2023-05-07T05:07:41;12.90;99.90
17252;DHT22;8742;51.716;8.790;2023-05-07T05:10:08;12.90;99.90
17252;DHT22;8742;51.716;8.790;2023-05-07T05:12:35;13.00;99.90
17252;DHT22;8742;51.716;8.790;2023-05-07T05:15:02;13.00;99.90
17252;DHT22;8742;51.716;8.790;2023-05-07T05:17:29;13.00;99.90
17252;DHT22;8742;51.716;8.790;2023-05-07T05:19:56;13.10;99.90
17252;DHT22;8742;51.716;8.790;2023-05-07T05:22:23;13.10;99.90
17252;DHT22;8742;51.716;8.790;2023-05-07T05:24:52;13.10;99.90
17252;DHT22;8742;51.716;8.790;2023-05-07T05:27:19;13.20;99.90
17252;DHT22;8742;51.716;8.790;2023-05-07T05:29:46;13.20;99.90
17252;DHT22;8742;51.716;8.790;2023-05-07T05:32:12;13.20;99.90
17252;DHT22;8742;51.716;8.790;2023-05-07T05:34:39;13.20;99.90
17252;DHT22;8742;51.716;8.790;2023-05-07T05:37:06;13.30;99.90
17252;DHT22;8742;51.716;8.790;2023-05-07T05:39:33;13.30;99.90
17252;DHT22;8742;51.716;8.790;2023-05-07T05:42:01;13.30;99.90
17252;DHT22;8742;51.716;8.790;2023-05-07T05:44:28;13.30;99.90
17252;DHT22;8742;51.716;8.790;2023-05-07T05:46:55;13.40;99.90
17252;DHT22;8742;51.716;8.790;2023-05-07T05:49:23;13.40;99.90
17252;DHT22;8742;51.716;8.790;2023-05-07T05:51:49;13.40;99.90
17252;DHT22;8742;51.716;8.790;2023-05-07T05:54:16;13.50;99.90
17252;DHT22;8742;51.716;8.790;2023-05-07T05:56:43;13.50;99.90
17252;DHT22;8742;51.716;8.790;2023-05-07T05:59:11;13.50;99.90
17252;DHT22;8742;51.716;8.790;2023-05-07T06:01:38;13.50;99.90
17252;DHT22;8742;51.716;8.790;2023-05-07T06:04:05;13.60;99.90
17252;DHT22;8742;51.716;8.790;2023-05-07T06:06:32;13.60;99.90
17252;DHT22;8742;51.716;8.790;2023-05-07T06:08:59;13.70;99.90
17252;DHT22;8742;51.716;8.790;2023-05-07T06:11:26;13.70;99.90
17252;DHT22;8742;51.716;8.790;2023-05-07T06:13:52;13.70;99.90
17252;DHT22;8742;51.716;8.790;2023-05-07T06:16:21;13.70;99.90
17252;DHT22;8742;51.716;8.790;2023-05-07T06:18:47;13.80;99.90
17252;DHT22;8742;51.716;8.790;2023-05-07T06:21:14;13.80;99.90
17252;DHT22;8742;51.716;8.790;2023-05-07T06:23:41;13.90;99.90
17252;DHT22;8742;51.716;8.790;2023-05-07T06:26:08;13.90;99.90
17252;DHT22;8742;51.716;8.790;2023-05-07T06:28:35;13.90;99.90
17252;DHT22;8742;51.716;8.790;2023-05-07T06:31:12;14.00;99.90
17252;DHT22;8742;51.716;8.790;2023-05-07T06:33:40;14.00;99.90
17252;DHT22;8742;51.716;8.790;2023-05-07T06:36:08;14.00;99.90
17252;DHT22;8742;51.716;8.790;2023-05-07T06:38:34;14.00;99.90
17252;DHT22;8742;51.716;8.790;2023-05-07T06:41:01;14.10;99.90
17252;DHT22;8742;51.716;8.790;2023-05-07T06:43:28;14.10;99.90
17252;DHT22;8742;51.716;8.790;2023-05-07T06:45:55;14.10;99.90
17252;DHT22;8742;51.716;8.790;2023-05-07T06:48:22;14.20;99.90
17252;DHT22;8742;51.716;8.790;2023-05-07T06:50:50;14.20;99.90
17252;DHT22;8742;51.716;8.790;2023-05-07T06:53:17;14.20;99.90
17252;DHT22;8742;51.716;8.790;2023-05-07T06:55:43;14.20;99.90
17252;DHT22;8742;51.716;8.790;2023-05-07T06:58:10;14.10;99.90
17252;DHT22;8742;51.716;8.790;2023-05-07T07:00:37;14.10;99.90
17252;DHT22;8742;51.716;8.790;2023-05-07T07:03:04;14.10;99.90
17252;DHT22;8742;51.716;8.790;2023-05-07T07:05:31;14.10;99.90
17252;DHT22;8742;51.716;8.790;2023-05-07T07:07:59;14.10;99.90
17252;DHT22;8742;51.716;8.790;2023-05-07T07:10:26;14.10;99.90
17252;DHT22;8742;51.716;8.790;2023-05-07T07:12:53;14.10;99.90
17252;DHT22;8742;51.716;8.790;2023-05-07T07:15:20;14.20;99.90
17252;DHT22;8742;51.716;8.790;2023-05-07T07:17:48;14.20;99.90
17252;DHT22;8742;51.716;8.790;2023-05-07T07:20:14;14.30;99.90
17252;DHT22;8742;51.716;8.790;2023-05-07T07:22:41;14.30;99.90
17252;DHT22;8742;51.716;8.790;2023-05-07T07:25:10;14.40;99.90
17252;DHT22;8742;51.716;8.790;2023-05-07T07:27:37;14.40;99.90
17252;DHT22;8742;51.716;8.790;2023-05-07T07:30:06;14.50;99.90
17252;DHT22;8742;51.716;8.790;2023-05-07T07:32:33;14.60;99.90
17252;DHT22;8742;51.716;8.790;2023-05-07T07:35:00;14.70;99.90
17252;DHT22;8742;51.716;8.790;2023-05-07T07:37:27;14.80;99.90
17252;DHT22;8742;51.716;8.790;2023-05-07T07:39:55;14.90;99.90
17252;DHT22;8742;51.716;8.790;2023-05-07T07:42:23;15.00;99.90
17252;DHT22;8742;51.716;8.790;2023-05-07T07:44:50;15.10;99.90
17252;DHT22;8742;51.716;8.790;2023-05-07T07:47:17;15.10;99.90
17252;DHT22;8742;51.716;8.790;2023-05-07T07:49:43;15.20;99.90
17252;DHT22;8742;51.716;8.790;2023-05-07T07:52:10;15.20;99.90
17252;DHT22;8742;51.716;8.790;2023-05-07T07:54:37;15.30;99.90
17252;DHT22;8742;51.716;8.790;2023-05-07T07:57:04;15.20;99.90
17252;DHT22;8742;51.716;8.790;2023-05-07T07:59:32;15.30;99.90
17252;DHT22;8742;51.716;8.790;2023-05-07T08:01:59;15.30;99.90
17252;DHT22;8742;51.716;8.790;2023-05-07T08:04:26;15.40;99.90
17252;DHT22;8742;51.716;8.790;2023-05-07T08:06:53;15.50;99.90
17252;DHT22;8742;51.716;8.790;2023-05-07T08:09:21;15.70;99.90
17252;DHT22;8742;51.716;8.790;2023-05-07T08:11:48;15.80;99.90
17252;DHT22;8742;51.716;8.790;2023-05-07T08:14:15;16.00;99.90
17252;DHT22;8742;51.716;8.790;2023-05-07T08:16:43;16.10;99.90
17252;DHT22;8742;51.716;8.790;2023-05-07T08:19:10;16.30;99.90
17252;DHT22;8742;51.716;8.790;2023-05-07T08:21:38;16.40;99.90
17252;DHT22;8742;51.716;8.790;2023-05-07T08:24:06;16.50;99.90
17252;DHT22;8742;51.716;8.790;2023-05-07T08:26:33;16.60;99.90
17252;DHT22;8742;51.716;8.790;2023-05-07T08:29:01;16.70;99.90
17252;DHT22;8742;51.716;8.790;2023-05-07T08:31:28;16.80;99.90
17252;DHT22;8742;51.716;8.790;2023-05-07T08:33:57;16.80;99.90
17252;DHT22;8742;51.716;8.790;2023-05-07T08:36:24;16.90;99.90
17252;DHT22;8742;51.716;8.790;2023-05-07T08:38:51;17.00;99.90
17252;DHT22;8742;51.716;8.790;2023-05-07T08:41:18;17.10;99.90
17252;DHT22;8742;51.716;8.790;2023-05-07T08:43:47;17.30;99.90
17252;DHT22;8742;51.716;8.790;2023-05-07T08:46:17;17.40;99.90
17252;DHT22;8742;51.716;8.790;2023-05-07T08:48:45;17.50;99.90
17252;DHT22;8742;51.716;8.790;2023-05-07T08:51:16;17.60;99.90
17252;DHT22;8742;51.716;8.790;2023-05-07T08:53:45;17.70;99.90
17252;DHT22;8742;51.716;8.790;2023-05-07T08:56:14;17.80;99.90
17252;DHT22;8742;51.716;8.790;2023-05-07T08:58:41;17.90;99.90
17252;DHT22;8742;51.716;8.790;2023-05-07T09:01:10;18.10;99.90
17252;DHT22;8742;51.716;8.790;2023-05-07T09:03:39;18.30;99.90
17252;DHT22;8742;51.716;8.790;2023-05-07T09:06:06;18.40;99.90
17252;DHT22;8742;51.716;8.790;2023-05-07T09:08:35;18.50;99.90
17252;DHT22;8742;51.716;8.790;2023-05-07T09:11:02;18.60;99.90
17252;DHT22;8742;51.716;8.790;2023-05-07T09:13:29;18.60;99.90
17252;DHT22;8742;51.716;8.790;2023-05-07T09:15:56;18.70;99.90
17252;DHT22;8742;51.716;8.790;2023-05-07T09:18:23;19.00;99.90
17252;DHT22;8742;51.716;8.790;2023-05-07T09:20:50;19.30;99.90
17252;DHT22;8742;51.716;8.790;2023-05-07T09:23:17;19.50;99.90
17252;DHT22;8742;51.716;8.790;2023-05-07T09:25:46;19.50;99.90
17252;DHT22;8742;51.716;8.790;2023-05-07T09:28:12;19.60;99.90
17252;DHT22;8742;51.716;8.790;2023-05-07T09:30:39;19.70;99.90
17252;DHT22;8742;51.716;8.790;2023-05-07T09:33:06;19.80;99.90
17252;DHT22;8742;51.716;8.790;2023-05-07T09:35:33;19.90;99.90
17252;DHT22;8742;51.716;8.790;2023-05-07T09:38:01;20.00;99.90
17252;DHT22;8742;51.716;8.790;2023-05-07T09:40:30;20.00;99.90
17252;DHT22;8742;51.716;8.790;2023-05-07T09:43:08;20.10;99.90
17252;DHT22;8742;51.716;8.790;2023-05-07T09:45:36;20.20;99.90
17252;DHT22;8742;51.716;8.790;2023-05-07T09:48:05;20.40;99.90
17252;DHT22;8742;51.716;8.790;2023-05-07T09:50:36;20.40;99.90
17252;DHT22;8742;51.716;8.790;2023-05-07T09:53:03;20.50;99.90
17252;DHT22;8742;51.716;8.790;2023-05-07T09:55:30;20.60;99.90
17252;DHT22;8742;51.716;8.790;2023-05-07T09:57:59;20.70;99.90
17252;DHT22;8742;51.716;8.790;2023-05-07T10:00:28;20.70;99.90
17252;DHT22;8742;51.716;8.790;2023-05-07T10:02:57;20.60;99.90
17252;DHT22;8742;51.716;8.790;2023-05-07T10:05:25;20.60;99.90
17252;DHT22;8742;51.716;8.790;2023-05-07T10:07:53;20.70;99.90
17252;DHT22;8742;51.716;8.790;2023-05-07T10:10:21;20.70;99.90
17252;DHT22;8742;51.716;8.790;2023-05-07T10:12:49;20.80;99.90
17252;DHT22;8742;51.716;8.790;2023-05-07T10:15:18;21.10;99.90
17252;DHT22;8742;51.716;8.790;2023-05-07T10:17:46;21.20;99.90
17252;DHT22;8742;51.716;8.790;2023-05-07T10:20:14;21.30;99.90
17252;DHT22;8742;51.716;8.790;2023-05-07T10:22:43;21.40;99.90
17252;DHT22;8742;51.716;8.790;2023-05-07T10:25:16;21.20;99.90
17252;DHT22;8742;51.716;8.790;2023-05-07T10:27:45;21.00;99.90
17252;DHT22;8742;51.716;8.790;2023-05-07T10:30:21;20.80;99.90
17252;DHT22;8742;51.716;8.790;2023-05-07T10:32:53;20.60;99.90
17252;DHT22;8742;51.716;8.790;2023-05-07T10:35:24;20.50;99.90
17252;DHT22;8742;51.716;8.790;2023-05-07T10:37:51;20.40;99.90
17252;DHT22;8742;51.716;8.790;2023-05-07T10:40:20;20.30;99.90
17252;DHT22;8742;51.716;8.790;2023-05-07T10:42:54;20.50;99.90
17252;DHT22;8742;51.716;8.790;2023-05-07T10:45:24;20.70;99.90
17252;DHT22;8742;51.716;8.790;2023-05-07T10:48:07;21.00;99.90
17252;DHT22;8742;51.716;8.790;2023-05-07T10:50:35;21.40;99.90
17252;DHT22;8742;51.716;8.790;2023-05-07T10:53:21;21.60;99.90
17252;DHT22;8742;51.716;8.790;2023-05-07T10:58:34;22.10;99.90
17252;DHT22;8742;51.716;8.790;2023-05-07T11:01:04;22.60;99.90
17252;DHT22;8742;51.716;8.790;2023-05-07T11:03:31;23.00;99.90
17252;DHT22;8742;51.716;8.790;2023-05-07T11:06:11;23.00;99.90
17252;DHT22;8742;51.716;8.790;2023-05-07T11:08:54;22.80;99.90
17252;DHT22;8742;51.716;8.790;2023-05-07T11:11:44;22.50;99.90
17252;DHT22;8742;51.716;8.790;2023-05-07T11:14:11;22.30;99.90
17252;DHT22;8742;51.716;8.790;2023-05-07T11:16:41;22.10;99.90
17252;DHT22;8742;51.716;8.790;2023-05-07T11:19:08;22.20;99.90
17252;DHT22;8742;51.716;8.790;2023-05-07T11:21:36;22.50;99.90
17252;DHT22;8742;51.716;8.790;2023-05-07T11:24:04;22.80;99.90
17252;DHT22;8742;51.716;8.790;2023-05-07T11:26:42;23.20;99.90
17252;DHT22;8742;51.716;8.790;2023-05-07T11:29:14;23.70;99.90
17252;DHT22;8742;51.716;8.790;2023-05-07T11:31:43;23.90;99.90
17252;DHT22;8742;51.716;8.790;2023-05-07T11:34:11;24.10;99.90
17252;DHT22;8742;51.716;8.790;2023-05-07T11:36:42;24.40;99.90
17252;DHT22;8742;51.716;8.790;2023-05-07T11:39:30;24.50;99.90
17252;DHT22;8742;51.716;8.790;2023-05-07T11:41:58;24.60;99.90
17252;DHT22;8742;51.716;8.790;2023-05-07T11:44:25;24.40;99.90
17252;DHT22;8742;51.716;8.790;2023-05-07T11:46:53;24.40;99.90
17252;DHT22;8742;51.716;8.790;2023-05-07T11:49:20;24.60;99.90
17252;DHT22;8742;51.716;8.790;2023-05-07T11:51:47;24.70;99.90
17252;DHT22;8742;51.716;8.790;2023-05-07T11:54:16;24.90;99.90
17252;DHT22;8742;51.716;8.790;2023-05-07T11:56:44;24.90;99.90
17252;DHT22;8742;51.716;8.790;2023-05-07T11:59:11;25.00;99.90
17252;DHT22;8742;51.716;8.790;2023-05-07T12:01:38;25.20;99.90
17252;DHT22;8742;51.716;8.790;2023-05-07T12:04:06;25.50;99.90
17252;DHT22;8742;51.716;8.790;2023-05-07T12:06:36;26.00;99.90
17252;DHT22;8742;51.716;8.790;2023-05-07T12:09:04;26.30;99.30
17252;DHT22;8742;51.716;8.790;2023-05-07T12:11:32;26.50;99.20
17252;DHT22;8742;51.716;8.790;2023-05-07T12:14:00;26.60;98.40
17252;DHT22;8742;51.716;8.790;2023-05-07T12:16:27;26.90;97.20
17252;DHT22;8742;51.716;8.790;2023-05-07T12:18:55;27.20;94.80
17252;DHT22;8742;51.716;8.790;2023-05-07T12:21:25;27.10;95.40
17252;DHT22;8742;51.716;8.790;2023-05-07T12:23:52;27.00;95.60
17252;DHT22;8742;51.716;8.790;2023-05-07T12:26:19;27.00;95.40
17252;DHT22;8742;51.716;8.790;2023-05-07T12:28:47;26.80;94.00
17252;DHT22;8742;51.716;8.790;2023-05-07T12:31:14;26.80;94.80
17252;DHT22;8742;51.716;8.790;2023-05-07T12:33:41;27.10;94.50
17252;DHT22;8742;51.716;8.790;2023-05-07T12:36:08;27.40;92.40
17252;DHT22;8742;51.716;8.790;2023-05-07T12:38:38;27.30;92.80
17252;DHT22;8742;51.716;8.790;2023-05-07T12:41:07;27.40;91.70
17252;DHT22;8742;51.716;8.790;2023-05-07T12:43:34;27.30;92.50
17252;DHT22;8742;51.716;8.790;2023-05-07T12:46:04;27.30;93.20
17252;DHT22;8742;51.716;8.790;2023-05-07T12:48:31;27.40;92.40
17252;DHT22;8742;51.716;8.790;2023-05-07T12:51:00;27.70;93.10
17252;DHT22;8742;51.716;8.790;2023-05-07T12:53:27;27.90;91.50
17252;DHT22;8742;51.716;8.790;2023-05-07T12:55:57;27.80;90.20
17252;DHT22;8742;51.716;8.790;2023-05-07T12:58:25;27.70;90.50
17252;DHT22;8742;51.716;8.790;2023-05-07T13:00:53;27.70;91.20
17252;DHT22;8742;51.716;8.790;2023-05-07T13:03:24;27.80;89.10
17252;DHT22;8742;51.716;8.790;2023-05-07T13:05:52;27.80;87.20
17252;DHT22;8742;51.716;8.790;2023-05-07T13:08:30;27.90;89.40
17252;DHT22;8742;51.716;8.790;2023-05-07T13:11:00;28.00;90.30
17252;DHT22;8742;51.716;8.790;2023-05-07T13:13:29;28.10;88.20
17252;DHT22;8742;51.716;8.790;2023-05-07T13:15:55;28.10;85.20
17252;DHT22;8742;51.716;8.790;2023-05-07T13:18:23;28.10;87.10
17252;DHT22;8742;51.716;8.790;2023-05-07T13:20:50;28.10;87.50
17252;DHT22;8742;51.716;8.790;2023-05-07T13:23:17;28.20;85.10
17252;DHT22;8742;51.716;8.790;2023-05-07T13:25:44;28.30;84.70
17252;DHT22;8742;51.716;8.790;2023-05-07T13:28:13;28.30;85.70
17252;DHT22;8742;51.716;8.790;2023-05-07T13:30:39;28.30;84.50
17252;DHT22;8742;51.716;8.790;2023-05-07T13:33:07;28.50;83.90
17252;DHT22;8742;51.716;8.790;2023-05-07T13:35:34;28.60;83.00
17252;DHT22;8742;51.716;8.790;2023-05-07T13:38:01;28.70;82.40
17252;DHT22;8742;51.716;8.790;2023-05-07T13:40:28;28.60;82.70
17252;DHT22;8742;51.716;8.790;2023-05-07T13:42:56;28.60;82.50
17252;DHT22;8742;51.716;8.790;2023-05-07T13:45:25;28.50;83.70
17252;DHT22;8742;51.716;8.790;2023-05-07T13:47:52;28.60;80.90
17252;DHT22;8742;51.716;8.790;2023-05-07T13:50:19;28.60;81.40
17252;DHT22;8742;51.716;8.790;2023-05-07T13:52:46;28.50;81.40
17252;DHT22;8742;51.716;8.790;2023-05-07T13:55:16;28.50;80.60
17252;DHT22;8742;51.716;8.790;2023-05-07T13:57:43;28.30;80.10
17252;DHT22;8742;51.716;8.790;2023-05-07T14:00:11;28.30;81.10
17252;DHT22;8742;51.716;8.790;2023-05-07T14:02:39;28.10;80.60
17252;DHT22;8742;51.716;8.790;2023-05-07T14:05:07;28.00;80.80
17252;DHT22;8742;51.716;8.790;2023-05-07T14:07:34;28.10;78.60
17252;DHT22;8742;51.716;8.790;2023-05-07T14:10:01;28.20;78.00
17252;DHT22;8742;51.716;8.790;2023-05-07T14:12:28;28.20;77.80
17252;DHT22;8742;51.716;8.790;2023-05-07T14:14:55;28.30;77.10
17252;DHT22;8742;51.716;8.790;2023-05-07T14:17:22;28.40;78.00
17252;DHT22;8742;51.716;8.790;2023-05-07T14:19:52;28.60;77.00
17252;DHT22;8742;51.716;8.790;2023-05-07T14:22:20;28.80;77.50
17252;DHT22;8742;51.716;8.790;2023-05-07T14:24:46;29.00;76.30
17252;DHT22;8742;51.716;8.790;2023-05-07T14:27:13;29.20;75.50
17252;DHT22;8742;51.716;8.790;2023-05-07T14:29:40;29.20;75.10
17252;DHT22;8742;51.716;8.790;2023-05-07T14:32:08;29.20;75.20
17252;DHT22;8742;51.716;8.790;2023-05-07T14:34:35;29.10;73.90
17252;DHT22;8742;51.716;8.790;2023-05-07T14:37:03;28.80;76.10
17252;DHT22;8742;51.716;8.790;2023-05-07T14:39:30;28.40;75.40
17252;DHT22;8742;51.716;8.790;2023-05-07T14:41:57;28.00;75.50
17252;DHT22;8742;51.716;8.790;2023-05-07T14:44:24;27.50;76.50
17252;DHT22;8742;51.716;8.790;2023-05-07T14:46:51;27.00;76.80
17252;DHT22;8742;51.716;8.790;2023-05-07T14:49:17;26.50;77.80
17252;DHT22;8742;51.716;8.790;2023-05-07T14:51:45;25.80;80.20
17252;DHT22;8742;51.716;8.790;2023-05-07T14:54:13;25.20;80.10
17252;DHT22;8742;51.716;8.790;2023-05-07T14:56:41;24.70;81.00
17252;DHT22;8742;51.716;8.790;2023-05-07T14:59:08;24.40;82.20
17252;DHT22;8742;51.716;8.790;2023-05-07T15:01:36;24.10;83.20
17252;DHT22;8742;51.716;8.790;2023-05-07T15:04:03;24.00;84.00
17252;DHT22;8742;51.716;8.790;2023-05-07T15:06:30;24.00;84.00
17252;DHT22;8742;51.716;8.790;2023-05-07T15:08:57;23.90;83.80
17252;DHT22;8742;51.716;8.790;2023-05-07T15:11:25;23.90;84.30
17252;DHT22;8742;51.716;8.790;2023-05-07T15:13:52;23.80;84.30
17252;DHT22;8742;51.716;8.790;2023-05-07T15:16:19;23.70;84.80
17252;DHT22;8742;51.716;8.790;2023-05-07T15:18:46;23.40;85.10
17252;DHT22;8742;51.716;8.790;2023-05-07T15:21:13;23.10;85.90
17252;DHT22;8742;51.716;8.790;2023-05-07T15:23:40;22.80;86.60
17252;DHT22;8742;51.716;8.790;2023-05-07T15:26:07;22.50;87.20
17252;DHT22;8742;51.716;8.790;2023-05-07T15:28:36;22.30;87.90
17252;DHT22;8742;51.716;8.790;2023-05-07T15:31:03;22.00;88.80
17252;DHT22;8742;51.716;8.790;2023-05-07T15:33:30;21.80;89.80
17252;DHT22;8742;51.716;8.790;2023-05-07T15:35:57;21.60;90.10
17252;DHT22;8742;51.716;8.790;2023-05-07T15:38:25;21.50;90.40
17252;DHT22;8742;51.716;8.790;2023-05-07T15:40:51;21.40;90.70
17252;DHT22;8742;51.716;8.790;2023-05-07T15:43:18;21.40;90.80
17252;DHT22;8742;51.716;8.790;2023-05-07T15:45:47;21.30;91.00
17252;DHT22;8742;51.716;8.790;2023-05-07T15:48:14;21.30;91.10
17252;DHT22;8742;51.716;8.790;2023-05-07T15:50:41;21.30;91.20